Weather at Abu Dhabi International Airport

Public forecast

Using degrees Celsius for public forecast. Weather courtesy of forecast.io.

Current aviation weather report (METAR) for Abu Dhabi International Airport

Retrieved 2022/07/02 02:00 UTC (40 minutes ago):

OMAA 020200Z 00000KT 5000 HZ FEW012 30/28 Q0994 TEMPO 3000

Aviation forecast (TAF) for Abu Dhabi International Airport

Retrieved 2022-07-02 00:00 UTC (3 hours ago):

TAF OMAA 012300Z 0200/0306 27005KT 8000 NSC PROB30 0200/0204 VRB02KT 1500 BR BECMG 0208/0210 33012KT BECMG 0220/0222 VRB02KT PROB30 0300/0304 3000 BR